createdAt,value
2022-09-05T00:02:31.685Z,36.46
2022-09-05T00:05:23.315Z,36.87
2022-09-05T00:08:04.936Z,36.61
2022-09-05T00:11:03.429Z,36.37
2022-09-05T00:13:39.769Z,36.64
2022-09-05T00:16:43.296Z,36.53
2022-09-05T00:24:17.067Z,37.11
2022-09-05T00:24:31.278Z,37.16
2022-09-05T00:25:54.284Z,36.79
2022-09-05T00:28:32.854Z,36.63
2022-09-05T00:31:56.140Z,36.70
2022-09-05T00:34:48.107Z,37.00
2022-09-05T00:37:32.531Z,37.00
2022-09-05T00:40:20.202Z,36.74
2022-09-05T00:42:52.549Z,36.95
2022-09-05T00:45:32.997Z,36.78
2022-09-05T00:48:23.523Z,37.22
2022-09-05T00:51:21.055Z,36.81
2022-09-05T00:54:24.774Z,37.14
2022-09-05T00:57:31.487Z,37.10
2022-09-05T01:00:22.765Z,36.76
2022-09-05T01:03:26.251Z,37.19
2022-09-05T01:06:17.527Z,36.99
2022-09-05T01:09:26.234Z,37.03
2022-09-05T01:12:14.116Z,37.18
2022-09-05T01:15:19.622Z,37.37
2022-09-05T01:18:14.821Z,37.46
2022-09-05T01:21:29.951Z,36.99
2022-09-05T01:24:37.557Z,37.08
2022-09-05T01:29:17.388Z,37.23
2022-09-05T01:30:47.848Z,37.18
2022-09-05T01:33:44.079Z,37.44
2022-09-05T01:36:45.770Z,37.45
2022-09-05T01:40:10.459Z,37.28
2022-09-05T01:42:39.008Z,37.34
2022-09-05T01:45:20.605Z,37.55
2022-09-05T01:48:04.275Z,37.36
2022-09-05T01:50:51.609Z,37.41
2022-09-05T01:53:38.966Z,37.50
2022-09-05T01:56:36.008Z,37.46
2022-09-05T01:59:23.338Z,37.28
2022-09-05T02:02:18.941Z,37.55
2022-09-05T02:05:48.486Z,37.67
2022-09-05T02:08:39.640Z,37.44
2022-09-05T02:11:11.061Z,37.54
2022-09-05T02:14:00.037Z,37.49
2022-09-05T02:16:43.476Z,37.25
2022-09-05T02:19:22.962Z,37.60
2022-09-05T02:22:02.889Z,37.36
2022-09-05T02:24:38.293Z,37.66
2022-09-05T02:27:48.988Z,37.69
2022-09-05T02:30:17.117Z,37.63
2022-09-05T02:32:57.722Z,37.36
2022-09-05T02:35:38.552Z,37.88
2022-09-05T02:39:09.175Z,37.74
2022-09-05T02:45:06.637Z,37.68
2022-09-05T02:45:20.600Z,37.76
2022-09-05T02:47:13.305Z,37.70
2022-09-05T02:52:54.925Z,37.69
2022-09-05T02:57:26.610Z,37.93
2022-09-05T02:57:33.105Z,37.80
2022-09-05T02:59:11.548Z,37.88
2022-09-05T03:02:02.076Z,38.17
2022-09-05T03:04:48.148Z,38.18
2022-09-05T03:07:46.754Z,38.35
2022-09-05T03:10:53.950Z,37.95
2022-09-05T03:14:02.190Z,38.36
2022-09-05T03:17:26.446Z,38.50
2022-09-05T03:20:54.363Z,38.55
2022-09-05T03:24:17.515Z,38.69
2022-09-05T03:27:39.911Z,38.79
2022-09-05T03:30:16.106Z,38.63
2022-09-05T03:33:43.043Z,39.15
2022-09-05T03:37:00.454Z,39.05
2022-09-05T03:40:19.161Z,39.10
2022-09-05T03:43:06.808Z,39.09
2022-09-05T03:46:05.126Z,39.27
2022-09-05T03:51:28.165Z,39.52
2022-09-05T03:57:13.604Z,39.23
2022-09-05T03:57:22.792Z,39.81
2022-09-05T03:58:57.669Z,39.66
2022-09-05T04:07:08.785Z,39.41
2022-09-05T04:08:23.603Z,39.56
2022-09-05T04:08:23.678Z,39.62
2022-09-05T04:10:29.312Z,39.59
2022-09-05T04:13:05.674Z,39.45
2022-09-05T04:15:42.388Z,39.55
2022-09-05T04:18:33.744Z,39.69
2022-09-05T04:21:10.218Z,39.63
2022-09-05T04:24:02.935Z,39.83
2022-09-05T04:26:59.784Z,39.90
2022-09-05T04:29:42.954Z,39.60
2022-09-05T04:32:29.484Z,39.88
2022-09-05T04:35:23.607Z,39.97
2022-09-05T04:37:59.488Z,39.94
2022-09-05T04:40:41.290Z,39.74
2022-09-05T04:43:18.977Z,39.80
2022-09-05T04:45:53.638Z,39.83
2022-09-05T04:48:32.519Z,39.85
2022-09-05T04:51:12.911Z,39.98
2022-09-05T04:54:30.104Z,40.01
2022-09-05T04:57:15.221Z,40.09
2022-09-05T05:06:02.647Z,39.97
2022-09-05T05:06:14.662Z,40.07
2022-09-05T05:06:18.514Z,40.00
2022-09-05T05:08:52.250Z,39.96
2022-09-05T05:16:42.527Z,40.02
2022-09-05T05:18:10.901Z,39.97
2022-09-05T05:18:12.356Z,40.16
2022-09-05T05:20:41.281Z,40.01
2022-09-05T05:23:16.929Z,39.91
2022-09-05T05:25:51.830Z,39.98
2022-09-05T05:28:31.535Z,40.02
2022-09-05T05:31:13.718Z,39.84
2022-09-05T05:33:46.775Z,39.75
2022-09-05T05:36:23.007Z,39.91
2022-09-05T05:39:02.213Z,40.19
2022-09-05T05:41:41.513Z,39.88
2022-09-05T05:44:15.857Z,40.18
2022-09-05T05:46:47.583Z,40.05
2022-09-05T05:49:40.362Z,40.52
2022-09-05T05:52:38.079Z,40.08
2022-09-05T05:55:52.853Z,40.13
2022-09-05T05:58:38.687Z,40.14
2022-09-05T06:01:53.304Z,40.03
2022-09-05T06:05:08.231Z,40.04
2022-09-05T06:09:44.550Z,39.85
2022-09-05T06:14:56.698Z,40.15
2022-09-05T06:15:27.920Z,40.09
2022-09-05T06:18:45.829Z,40.16
2022-09-05T06:22:20.616Z,39.95
2022-09-05T06:26:01.065Z,40.11
2022-09-05T06:28:42.910Z,40.08
2022-09-05T06:31:34.951Z,39.91
2022-09-05T06:34:35.725Z,40.36
2022-09-05T06:37:22.402Z,39.89
2022-09-05T06:40:09.802Z,39.64
2022-09-05T06:43:21.795Z,39.68
2022-09-05T06:46:54.503Z,39.73
2022-09-05T06:49:29.712Z,39.86
2022-09-05T06:53:19.510Z,39.85
2022-09-05T06:56:09.875Z,39.73
2022-09-05T06:59:35.719Z,39.48
2022-09-05T07:02:18.266Z,39.29
2022-09-05T07:05:39.691Z,39.27
2022-09-05T07:08:34.728Z,39.15
2022-09-05T07:11:16.809Z,38.67
2022-09-05T07:14:00.427Z,38.04
2022-09-05T07:16:41.981Z,38.40
2022-09-05T07:19:30.177Z,38.09
2022-09-05T07:22:46.041Z,37.00
2022-09-05T07:25:18.025Z,37.05
2022-09-05T07:28:29.330Z,36.72
2022-09-05T07:30:52.353Z,36.93
2022-09-05T07:33:21.879Z,36.67
2022-09-05T07:35:53.679Z,35.48
2022-09-05T07:38:49.069Z,34.94
2022-09-05T07:41:23.563Z,34.77
2022-09-05T07:43:58.859Z,33.45
2022-09-05T07:46:32.403Z,32.64
2022-09-05T07:49:05.740Z,31.92
2022-09-05T07:56:49.148Z,31.03
2022-09-05T07:56:52.882Z,31.15
2022-09-05T07:57:30.874Z,31.29
2022-09-05T08:00:07.664Z,31.39
2022-09-05T08:02:54.658Z,30.81
2022-09-05T08:05:35.187Z,30.43
2022-09-05T08:08:14.200Z,29.25
2022-09-05T08:11:24.204Z,29.10
2022-09-05T08:14:43.693Z,28.98
2022-09-05T08:16:47.096Z,29.73
2022-09-05T08:19:47.005Z,30.63
2022-09-05T08:22:22.125Z,31.31
2022-09-05T08:25:02.951Z,31.64
2022-09-05T08:27:44.357Z,32.29
2022-09-05T08:30:26.651Z,32.77
2022-09-05T08:33:10.349Z,33.43
2022-09-05T08:35:45.482Z,33.60
2022-09-05T08:38:15.595Z,34.33
2022-09-05T08:40:55.048Z,33.81
2022-09-05T08:44:20.995Z,33.67
2022-09-05T08:46:46.182Z,33.17
2022-09-05T08:49:57.840Z,32.24
2022-09-05T08:52:39.630Z,30.67
2022-09-05T08:55:18.963Z,29.35
2022-09-05T08:58:54.040Z,27.90
2022-09-05T09:02:45.439Z,25.59
2022-09-05T09:05:14.291Z,25.52
2022-09-05T09:07:52.519Z,23.80
2022-09-05T09:10:49.086Z,22.75
2022-09-05T09:13:36.437Z,21.92
2022-09-05T09:16:22.002Z,21.89
2022-09-05T09:19:08.328Z,20.46
2022-09-05T09:21:46.388Z,20.77
2022-09-05T09:24:32.613Z,20.29
2022-09-05T09:27:06.457Z,20.18
2022-09-05T09:29:40.324Z,20.84
2022-09-05T09:32:15.065Z,20.57
2022-09-05T09:35:00.877Z,20.49
2022-09-05T09:38:24.174Z,20.12
2022-09-05T09:41:28.429Z,19.43
2022-09-05T09:45:22.771Z,19.54
2022-09-05T09:48:35.986Z,18.98
2022-09-05T09:51:27.554Z,18.64
2022-09-05T09:54:26.944Z,18.20
2022-09-05T09:57:29.517Z,18.80
2022-09-05T10:00:11.875Z,18.96
2022-09-05T10:07:10.662Z,18.45
2022-09-05T10:10:52.403Z,18.35
2022-09-05T10:10:55.126Z,18.97
2022-09-05T10:13:33.698Z,18.82
2022-09-05T10:16:34.316Z,18.51
2022-09-05T10:23:18.917Z,19.00
2022-09-05T10:26:32.661Z,18.46
2022-09-05T10:29:33.270Z,18.64
2022-09-05T10:35:07.670Z,18.55
2022-09-05T10:35:13.322Z,19.23
2022-09-05T10:38:00.728Z,18.25
2022-09-05T10:41:07.979Z,18.47
2022-09-05T10:43:31.154Z,19.11
2022-09-05T10:46:39.729Z,20.17
2022-09-05T10:49:10.936Z,20.42
2022-09-05T10:51:52.148Z,21.22
2022-09-05T10:54:38.937Z,21.66
2022-09-05T10:57:34.015Z,22.09
2022-09-05T11:02:19.304Z,22.53
2022-09-05T11:03:42.265Z,21.74
2022-09-05T11:06:17.060Z,21.84
2022-09-05T11:09:07.154Z,21.74
2022-09-05T11:11:46.858Z,21.92
2022-09-05T11:14:49.352Z,22.12
2022-09-05T11:17:32.198Z,22.00
2022-09-05T11:20:46.868Z,21.84
2022-09-05T11:23:21.635Z,21.67
2022-09-05T11:26:00.890Z,21.42
2022-09-05T11:28:57.642Z,21.58
2022-09-05T11:32:56.533Z,21.66
2022-09-05T11:39:47.317Z,22.50
2022-09-05T11:40:06.173Z,23.56
2022-09-05T11:42:18.973Z,23.83
2022-09-05T11:45:49.799Z,24.49
2022-09-05T11:48:58.496Z,24.71
2022-09-05T11:52:30.359Z,25.06
2022-09-05T11:55:32.808Z,25.32
2022-09-05T11:58:45.159Z,25.46
2022-09-05T12:01:38.393Z,25.66
2022-09-05T12:05:48.993Z,25.91
2022-09-05T12:08:01.987Z,26.04
2022-09-05T12:10:48.529Z,26.32
2022-09-05T12:13:36.976Z,26.22
2022-09-05T12:16:26.643Z,26.38
2022-09-05T12:19:18.989Z,26.91
2022-09-05T12:22:23.720Z,26.81
2022-09-05T12:27:36.510Z,27.03
2022-09-05T12:29:34.243Z,26.59
2022-09-05T12:33:24.277Z,26.88
2022-09-05T12:36:06.730Z,26.79
2022-09-05T12:40:56.403Z,26.86
2022-09-05T12:41:44.542Z,26.83
2022-09-05T12:44:44.990Z,26.92
2022-09-05T12:47:28.848Z,27.32
2022-09-05T12:50:14.484Z,27.21
2022-09-05T12:52:47.392Z,27.17
2022-09-05T12:55:26.394Z,27.04
2022-09-05T13:02:57.874Z,27.00
2022-09-05T13:03:04.349Z,27.07
2022-09-05T13:04:15.985Z,26.98
2022-09-05T13:06:44.489Z,27.22
2022-09-05T13:09:23.244Z,27.13
2022-09-05T13:14:58.079Z,27.41
2022-09-05T13:15:18.614Z,27.56
2022-09-05T13:17:59.363Z,27.63
2022-09-05T13:20:36.513Z,26.82
2022-09-05T13:23:19.927Z,27.35
2022-09-05T13:25:58.334Z,27.58
2022-09-05T13:28:39.083Z,27.73
2022-09-05T13:38:05.626Z,27.45
2022-09-05T13:38:19.617Z,27.44
2022-09-05T13:38:20.555Z,27.71
2022-09-05T13:39:55.936Z,26.97
2022-09-05T13:42:28.921Z,26.95
2022-09-05T13:45:00.826Z,27.01
2022-09-05T13:47:56.413Z,26.97
2022-09-05T13:50:28.605Z,26.67
2022-09-05T13:53:05.005Z,26.03
2022-09-05T13:55:45.275Z,26.40
2022-09-05T13:58:29.054Z,26.22
2022-09-05T14:01:27.032Z,26.42
2022-09-05T14:08:33.533Z,26.77
2022-09-05T14:11:51.368Z,26.23
2022-09-05T14:17:51.503Z,26.38
2022-09-05T14:20:42.925Z,26.30
2022-09-05T14:23:15.209Z,26.38
2022-09-05T14:25:50.110Z,26.39
2022-09-05T14:28:27.883Z,26.28
2022-09-05T14:35:33.313Z,26.46
2022-09-05T14:37:52.009Z,26.82
2022-09-05T14:37:55.739Z,26.89
2022-09-05T14:40:47.179Z,27.01
2022-09-05T14:44:03.232Z,27.08
2022-09-05T14:46:57.250Z,27.30
2022-09-05T14:50:04.167Z,27.20
2022-09-05T14:52:35.469Z,27.38
2022-09-05T15:02:42.156Z,27.43
2022-09-05T15:02:52.810Z,27.45
2022-09-05T15:06:39.165Z,27.57
2022-09-05T15:12:18.208Z,27.73
2022-09-05T15:12:27.674Z,27.58
2022-09-05T15:15:13.926Z,27.19
2022-09-05T15:17:48.462Z,26.79
2022-09-05T15:20:31.663Z,26.91
2022-09-05T15:22:59.409Z,26.75
2022-09-05T15:25:47.691Z,26.57
2022-09-05T15:28:20.756Z,26.50
2022-09-05T15:31:05.056Z,26.56
2022-09-05T15:33:34.198Z,26.61
2022-09-05T15:36:04.319Z,26.49
2022-09-05T15:38:55.422Z,26.83
2022-09-05T15:41:25.484Z,26.71
2022-09-05T15:44:04.042Z,27.16
2022-09-05T15:46:49.175Z,27.33
2022-09-05T15:49:32.922Z,27.34
2022-09-05T15:52:05.171Z,27.25
2022-09-05T15:54:39.458Z,27.22
2022-09-05T15:57:17.709Z,27.08
2022-09-05T15:59:53.324Z,26.88
2022-09-05T16:02:26.734Z,26.88
2022-09-05T16:10:30.048Z,27.35
2022-09-05T16:10:50.570Z,27.45
2022-09-05T16:14:36.480Z,27.34
2022-09-05T16:23:13.115Z,27.43
2022-09-05T16:23:25.119Z,27.60
2022-09-05T16:23:39.660Z,27.32
2022-09-05T16:26:10.499Z,28.15
2022-09-05T16:28:45.865Z,27.93
2022-09-05T16:31:20.542Z,28.23
2022-09-05T16:33:48.862Z,28.09
2022-09-05T16:36:24.395Z,28.44
2022-09-05T16:38:59.820Z,28.68
2022-09-05T16:41:46.084Z,27.96
2022-09-05T16:44:24.010Z,28.85
2022-09-05T16:47:11.203Z,28.95
2022-09-05T16:49:50.775Z,28.91
2022-09-05T16:52:26.435Z,28.58
2022-09-05T16:55:04.045Z,29.09
2022-09-05T16:57:39.882Z,27.89
2022-09-05T17:00:10.546Z,28.69
2022-09-05T17:02:50.302Z,28.53
2022-09-05T17:05:29.807Z,28.37
2022-09-05T17:08:21.643Z,28.19
2022-09-05T17:10:57.497Z,28.17
2022-09-05T17:13:43.295Z,28.28
2022-09-05T17:16:22.089Z,28.08
2022-09-05T17:18:52.661Z,28.20
2022-09-05T17:21:46.942Z,28.45
2022-09-05T17:29:25.039Z,28.16
2022-09-05T17:29:26.824Z,29.12
2022-09-05T17:32:59.615Z,29.42
2022-09-05T17:35:54.323Z,28.77
2022-09-05T17:38:58.866Z,29.32
2022-09-05T17:42:14.651Z,29.65
2022-09-05T17:44:53.626Z,30.05
2022-09-05T17:47:35.346Z,29.51
2022-09-05T17:50:18.934Z,29.69
2022-09-05T17:53:26.779Z,29.93
2022-09-05T17:56:13.438Z,29.98
2022-09-05T17:59:06.228Z,30.17
2022-09-05T18:01:35.216Z,30.45
2022-09-05T18:04:15.974Z,30.45
2022-09-05T18:07:00.386Z,30.54
2022-09-05T18:10:07.597Z,31.04
2022-09-05T18:13:13.870Z,30.82
2022-09-05T18:16:12.121Z,31.01
2022-09-05T18:19:33.241Z,30.93
2022-09-05T18:21:53.030Z,31.13
2022-09-05T18:24:33.293Z,31.30
2022-09-05T18:27:30.900Z,31.20
2022-09-05T18:30:09.854Z,31.06
2022-09-05T18:32:47.263Z,31.59
2022-09-05T18:35:37.606Z,31.26
2022-09-05T18:38:50.116Z,31.72
2022-09-05T18:41:22.312Z,31.35
2022-09-05T18:44:12.637Z,31.38
2022-09-05T18:46:47.093Z,31.44
2022-09-05T18:50:25.752Z,31.38
2022-09-05T18:52:23.361Z,31.27
2022-09-05T18:55:33.968Z,31.58
2022-09-05T18:57:58.862Z,31.10
2022-09-05T19:00:44.524Z,31.69
2022-09-05T19:03:22.918Z,31.42
2022-09-05T19:06:34.701Z,31.64
2022-09-05T19:08:55.953Z,32.14
2022-09-05T19:11:34.175Z,32.13
2022-09-05T19:14:29.006Z,31.93
2022-09-05T19:17:08.527Z,32.12
2022-09-05T19:20:31.934Z,31.91
2022-09-05T19:23:09.970Z,32.03
2022-09-05T19:25:42.701Z,32.05
2022-09-05T19:32:56.034Z,32.37
2022-09-05T19:36:46.873Z,32.48
2022-09-05T19:37:12.521Z,32.50
2022-09-05T19:45:41.013Z,32.59
2022-09-05T19:47:37.378Z,32.80
2022-09-05T19:47:40.056Z,32.82
2022-09-05T19:48:26.099Z,32.91
2022-09-05T19:50:56.128Z,32.94
2022-09-05T19:53:24.465Z,33.10
2022-09-05T19:55:53.843Z,33.19
2022-09-05T19:58:24.374Z,33.09
2022-09-05T20:01:04.771Z,33.04
2022-09-05T20:03:39.430Z,33.22
2022-09-05T20:06:30.180Z,33.45
2022-09-05T20:09:14.610Z,33.38
2022-09-05T20:11:49.755Z,33.44
2022-09-05T20:14:29.037Z,33.23
2022-09-05T20:17:01.373Z,33.09
2022-09-05T20:19:32.769Z,33.09
2022-09-05T20:22:17.442Z,33.29
2022-09-05T20:24:55.718Z,33.06
2022-09-05T20:27:29.634Z,32.99
2022-09-05T20:30:01.173Z,32.96
2022-09-05T20:32:39.772Z,33.01
2022-09-05T20:38:28.314Z,33.46
2022-09-05T20:43:15.472Z,32.96
2022-09-05T20:43:35.225Z,33.15
2022-09-05T20:44:00.022Z,33.08
2022-09-05T20:48:31.832Z,33.44
2022-09-05T20:54:10.245Z,33.24
2022-09-05T20:54:21.958Z,33.67
2022-09-05T20:55:41.272Z,33.26
2022-09-05T20:58:13.045Z,33.34
2022-09-05T21:01:20.370Z,33.55
2022-09-05T21:03:39.758Z,33.11
2022-09-05T21:06:19.975Z,33.47
2022-09-05T21:08:47.668Z,33.29
2022-09-05T21:11:15.978Z,33.45
2022-09-05T21:13:52.479Z,33.43
2022-09-05T21:16:30.562Z,33.85
2022-09-05T21:18:57.972Z,33.70
2022-09-05T21:21:30.034Z,33.67
2022-09-05T21:24:17.414Z,33.91
2022-09-05T21:26:48.042Z,34.24
2022-09-05T21:29:27.430Z,34.12
2022-09-05T21:32:03.952Z,34.03
2022-09-05T21:34:45.098Z,33.63
2022-09-05T21:37:15.381Z,33.92
2022-09-05T21:39:59.678Z,34.21
2022-09-05T21:47:03.504Z,34.41
2022-09-05T21:47:41.435Z,34.22
2022-09-05T21:48:10.525Z,34.18
2022-09-05T21:50:45.149Z,34.49
2022-09-05T21:53:55.152Z,34.46
2022-09-05T21:59:15.176Z,34.07
2022-09-05T21:59:36.630Z,34.76
2022-09-05T22:01:55.734Z,34.11
2022-09-05T22:04:24.737Z,34.64
2022-09-05T22:06:54.142Z,34.71
2022-09-05T22:09:22.925Z,34.93
2022-09-05T22:11:51.219Z,34.69
2022-09-05T22:14:19.641Z,34.92
2022-09-05T22:16:50.462Z,35.33
2022-09-05T22:19:37.165Z,35.10
2022-09-05T22:22:16.898Z,34.64
2022-09-05T22:24:50.496Z,34.51
2022-09-05T22:27:20.678Z,34.58
2022-09-05T22:29:50.410Z,34.42
2022-09-05T22:32:34.471Z,34.65
2022-09-05T22:35:28.265Z,34.71
2022-09-05T22:38:00.909Z,34.83
2022-09-05T22:40:30.763Z,34.77
2022-09-05T22:43:00.008Z,35.05
2022-09-05T22:45:29.595Z,35.22
2022-09-05T22:47:57.456Z,35.19
2022-09-05T22:50:26.565Z,35.07
2022-09-05T22:52:55.255Z,35.56
2022-09-05T22:55:22.530Z,34.89
2022-09-05T22:57:49.874Z,35.64
2022-09-05T23:00:17.410Z,34.97
2022-09-05T23:02:47.865Z,35.68
2022-09-05T23:05:17.758Z,35.38
2022-09-05T23:07:44.991Z,35.43
2022-09-05T23:10:13.884Z,35.45
2022-09-05T23:12:41.143Z,35.65
2022-09-05T23:15:09.937Z,35.72
2022-09-05T23:17:37.237Z,35.49
2022-09-05T23:20:05.672Z,35.68
2022-09-05T23:22:36.186Z,35.81
2022-09-05T23:25:03.822Z,35.41
2022-09-05T23:27:36.886Z,35.55
2022-09-05T23:30:07.234Z,35.66
2022-09-05T23:32:34.843Z,35.57
2022-09-05T23:35:02.249Z,35.83
2022-09-05T23:37:29.509Z,35.51
2022-09-05T23:39:56.801Z,35.57
2022-09-05T23:42:24.177Z,35.82
2022-09-05T23:44:52.777Z,35.67
2022-09-05T23:47:20.122Z,36.44
2022-09-05T23:49:47.341Z,36.27
2022-09-05T23:52:14.589Z,36.00
2022-09-05T23:54:41.828Z,36.28
2022-09-05T23:57:09.085Z,36.45
2022-09-05T23:59:36.290Z,35.92
